Time;durP1;ratioP1;P1;durP2;ratioP2;P2;SDS_P1;SDS_P2;PMS_P1;PMS_P2;Temp;Humidity;BMP_temperature;BMP_pressure;BME280_temperature;BME280_humidity;BME280_pressure;Samples;Min_cycle;Max_cycle;Signal;HPM_P1;HPM_P2
2021/12/30 00:00:09;;;;;;;217.30;35.78;;;;;;;1.43;100.00;100022.09;4819171;29;20027;-81
2021/12/30 00:02:34;;;;;;;233.77;38.78;;;;;;;0.42;100.00;99882.34;4836073;29;20519;-81
2021/12/30 00:05:03;;;;;;;204.60;39.53;;;;;;;1.11;100.00;99972.41;4821348;29;20030;-81
2021/12/30 00:07:29;;;;;;;214.15;38.97;;;;;;;1.08;100.00;99967.44;4814977;29;20026;-80
2021/12/30 00:09:55;;;;;;;178.43;35.55;;;;;;;1.02;100.00;99942.38;4820089;29;20026;-80
2021/12/30 00:12:20;;;;;;;175.48;36.55;;;;;;;0.67;100.00;99911.63;4817833;29;20042;-81
2021/12/30 00:14:46;;;;;;;145.75;35.00;;;;;;;2.03;100.00;100129.91;4830035;29;20034;-80
2021/12/30 00:17:11;;;;;;;173.90;37.22;;;;;;;0.76;100.00;99912.47;4820463;29;20038;-81
2021/12/30 00:19:37;;;;;;;166.55;36.97;;;;;;;1.23;100.00;99976.44;4827840;29;20037;-81
2021/12/30 00:22:03;;;;;;;193.88;38.63;;;;;;;1.07;100.00;99939.28;4799739;29;20477;-80
2021/12/30 00:24:29;;;;;;;163.13;33.85;;;;;;;2.05;100.00;100104.88;4803395;29;20031;-80
2021/12/30 00:26:55;;;;;;;174.43;38.08;;;;;;;0.65;100.00;99881.81;4819033;29;20023;-81
2021/12/30 00:29:20;;;;;;;168.40;37.00;;;;;;;1.79;100.00;100051.06;4800138;29;20175;-81
2021/12/30 00:31:46;;;;;;;186.68;36.78;;;;;;;2.05;100.00;100099.56;4815423;29;20046;-80
2021/12/30 00:34:12;;;;;;;219.27;39.83;;;;;;;0.98;100.00;99929.63;4817372;29;20450;-81
2021/12/30 00:36:38;;;;;;;191.30;36.72;;;;;;;1.00;100.00;99928.50;4830188;29;20074;-81
2021/12/30 00:39:03;;;;;;;180.82;33.50;;;;;;;1.45;100.00;99990.94;4836102;29;20034;-81
2021/12/30 00:41:29;;;;;;;230.85;38.40;;;;;;;1.00;100.00;99899.34;4822618;29;20053;-81
2021/12/30 00:43:55;;;;;;;221.00;40.22;;;;;;;0.56;100.00;99819.22;4822461;29;20137;-82
2021/12/30 00:46:20;;;;;;;214.38;38.92;;;;;;;0.78;100.00;99868.97;4821861;29;20034;-81
2021/12/30 00:48:46;;;;;;;231.50;40.75;;;;;;;0.63;100.00;99849.34;4815594;29;20038;-82
2021/12/30 00:51:11;;;;;;;236.63;40.53;;;;;;;1.62;100.00;99999.78;4800339;29;20031;-81
2021/12/30 00:53:37;;;;;;;273.65;42.00;;;;;;;1.37;100.00;99937.91;4802705;29;20035;-81
2021/12/30 00:56:03;;;;;;;251.07;39.75;;;;;;;2.15;100.00;100056.94;4802124;29;20075;-81
2021/12/30 00:58:29;;;;;;;224.60;37.80;;;;;;;1.41;100.00;99932.09;4808805;29;20043;-81
2021/12/30 01:00:55;;;;;;;244.82;40.92;;;;;;;1.23;100.00;99927.94;4817951;29;20072;-81
2021/12/30 01:03:21;;;;;;;237.75;40.25;;;;;;;0.65;100.00;99807.69;4811504;29;20139;-81
2021/12/30 01:05:47;;;;;;;236.80;39.75;;;;;;;1.98;100.00;100044.63;4819014;29;20091;-81
2021/12/30 01:08:13;;;;;;;263.35;41.33;;;;;;;0.58;100.00;99806.66;4831373;29;20035;-81
2021/12/30 01:10:41;;;;;;;257.70;41.45;;;;;;;0.67;100.00;99834.84;4833490;29;20041;-80
2021/12/30 01:13:15;;;;;;;241.20;40.35;;;;;;;0.75;100.00;99829.56;4818778;29;20031;-81
2021/12/30 01:15:59;;;;;;;224.27;41.85;;;;;;;1.70;100.00;99973.28;4815614;29;20350;-81
2021/12/30 01:21:29;;;;;;;242.07;41.97;;;;;;;1.36;100.00;99901.78;4814142;29;20637;-81
2021/12/30 01:23:56;;;;;;;239.90;43.95;;;;;;;0.70;100.00;99785.03;4818448;29;20030;-81
2021/12/30 01:26:22;;;;;;;245.52;46.00;;;;;;;0.74;100.00;99793.47;4814473;29;20023;-81
2021/12/30 01:28:49;;;;;;;247.27;45.95;;;;;;;1.75;100.00;99943.63;4818906;29;20046;-81
2021/12/30 01:31:16;;;;;;;221.07;44.03;;;;;;;1.27;100.00;99850.56;4809972;29;20414;-81
2021/12/30 01:33:43;;;;;;;232.90;44.15;;;;;;;1.60;100.00;99911.63;4815263;29;20026;-80
2021/12/30 01:36:10;;;;;;;213.00;43.45;;;;;;;2.10;100.00;99990.28;4791050;29;20054;-81
2021/12/30 01:38:36;;;;;;;212.45;43.28;;;;;;;1.79;100.00;99923.75;4800020;29;20027;-81
2021/12/30 01:41:02;;;;;;;210.40;42.88;;;;;;;1.80;100.00;99925.41;4801028;29;20091;-81
2021/12/30 01:43:29;;;;;;;155.35;37.63;;;;;;;2.32;100.00;100005.56;4830535;29;20098;-80
2021/12/30 01:45:55;;;;;;;173.45;41.15;;;;;;;0.90;100.00;99764.41;4803628;29;20060;-81
2021/12/30 01:48:21;;;;;;;181.38;41.80;;;;;;;1.63;100.00;99874.16;4792333;29;20467;-81
2021/12/30 01:50:47;;;;;;;165.45;41.83;;;;;;;2.09;100.00;99941.69;4799841;29;20031;-80
2021/12/30 01:53:12;;;;;;;185.68;41.65;;;;;;;2.31;100.00;99966.72;4810672;29;20125;-81
2021/12/30 01:55:40;;;;;;;176.13;44.25;;;;;;;2.15;100.00;99949.97;4796602;29;20078;-81
2021/12/30 01:58:06;;;;;;;166.75;41.63;;;;;;;2.37;100.00;99980.31;4812289;29;20054;-81
2021/12/30 02:00:35;;;;;;;174.40;42.85;;;;;;;2.34;100.00;99971.69;4810548;29;20446;-80
2021/12/30 02:03:01;;;;;;;162.82;42.80;;;;;;;2.34;100.00;99965.56;4812888;29;20030;-80
2021/12/30 02:05:27;;;;;;;166.32;45.00;;;;;;;2.40;100.00;99974.69;4793657;29;20098;-80
2021/12/30 02:07:53;;;;;;;160.02;41.92;;;;;;;2.34;100.00;99954.94;4820356;29;20047;-81
2021/12/30 02:10:19;;;;;;;156.88;43.90;;;;;;;1.79;100.00;99863.56;4795347;29;20074;-81
2021/12/30 02:12:46;;;;;;;165.20;43.90;;;;;;;1.88;100.00;99873.16;4810842;29;20047;-81
2021/12/30 02:15:16;;;;;;;160.98;43.70;;;;;;;2.41;100.00;99949.78;4802270;29;20034;-80
2021/12/30 02:17:42;;;;;;;161.32;43.03;;;;;;;2.43;100.00;99945.97;4826046;29;20034;-80
2021/12/30 02:20:11;;;;;;;168.88;43.45;;;;;;;2.34;100.00;99926.56;4797227;29;20105;-80
2021/12/30 02:22:37;;;;;;;154.93;43.13;;;;;;;2.49;100.00;99950.63;4807939;29;20404;-81
2021/12/30 02:25:04;;;;;;;130.85;38.63;;;;;;;2.48;100.00;99953.44;4793377;29;20049;-80
2021/12/30 02:27:31;;;;;;;150.70;41.28;;;;;;;2.31;100.00;99926.88;4773416;30;20035;-79
2021/12/30 02:29:56;;;;;;;151.80;41.50;;;;;;;2.40;100.00;99935.69;4787401;30;20073;-79
2021/12/30 02:32:22;;;;;;;143.70;40.22;;;;;;;2.50;100.00;99956.75;4799230;29;20429;-81
2021/12/30 02:34:49;;;;;;;159.73;41.13;;;;;;;2.58;100.00;99954.06;4806501;29;20390;-80
2021/12/30 02:37:19;;;;;;;142.82;37.60;;;;;;;2.24;100.00;99883.44;4790270;29;20055;-80
2021/12/30 02:39:51;;;;;;;137.68;38.88;;;;;;;2.55;100.00;99935.81;4777285;29;20031;-80
2021/12/30 02:42:16;;;;;;;128.13;36.88;;;;;;;2.55;100.00;99931.38;4791958;29;20103;-80
2021/12/30 02:44:41;;;;;;;137.75;39.45;;;;;;;2.37;100.00;99882.09;4775402;29;20034;-80
2021/12/30 02:47:07;;;;;;;131.18;38.47;;;;;;;2.50;100.00;99909.78;4806297;29;20343;-81
2021/12/30 02:49:32;;;;;;;111.18;33.53;;;;;;;2.60;100.00;99917.56;4790766;29;20034;-80
2021/12/30 02:51:57;;;;;;;110.75;33.40;;;;;;;2.45;100.00;99887.38;4798085;29;20037;-79
2021/12/30 02:54:23;;;;;;;109.53;33.60;;;;;;;2.61;100.00;99911.25;4793429;29;20054;-79
2021/12/30 02:56:49;;;;;;;102.55;30.63;;;;;;;2.38;100.00;99855.38;4785843;30;20142;-80
2021/12/30 02:59:18;;;;;;;87.25;26.83;;;;;;;2.37;100.00;99866.16;4776881;30;20059;-80
2021/12/30 03:01:43;;;;;;;105.28;31.45;;;;;;;2.60;100.00;99898.97;4812466;29;20045;-79
2021/12/30 03:04:10;;;;;;;85.65;27.02;;;;;;;2.62;100.00;99885.53;4808479;29;20038;-79
2021/12/30 03:06:36;;;;;;;89.20;28.00;;;;;;;2.64;100.00;99894.97;4794284;29;20057;-79
2021/12/30 03:09:02;;;;;;;83.47;26.75;;;;;;;2.45;100.00;99855.53;4809476;29;20039;-79
2021/12/30 03:11:29;;;;;;;74.32;24.75;;;;;;;2.71;100.00;99895.94;4810042;29;20058;-79
2021/12/30 03:13:55;;;;;;;67.93;23.05;;;;;;;2.54;100.00;99867.78;4784400;29;20473;-79
2021/12/30 03:16:25;;;;;;;65.95;22.33;;;;;;;2.71;100.00;99901.25;4815865;29;20035;-79
2021/12/30 03:18:51;;;;;;;59.80;22.00;;;;;;;2.42;100.00;99824.00;4809190;29;20023;-79
2021/12/30 03:21:20;;;;;;;51.53;18.50;;;;;;;2.78;100.00;99870.38;4795399;29;20035;-79
2021/12/30 03:23:46;;;;;;;53.53;20.42;;;;;;;2.65;100.00;99851.50;4792658;29;20034;-79
2021/12/30 03:26:12;;;;;;;55.47;19.55;;;;;;;2.81;100.00;99872.69;4792813;29;20035;-80
2021/12/30 03:28:40;;;;;;;52.17;19.42;;;;;;;2.64;100.00;99841.84;4792505;29;20031;-79
2021/12/30 03:31:08;;;;;;;44.40;18.30;;;;;;;2.85;100.00;99859.03;4793362;29;20377;-79
2021/12/30 03:33:34;;;;;;;41.13;17.38;;;;;;;2.81;100.00;99848.78;4807608;29;20073;-80
2021/12/30 03:36:02;;;;;;;47.80;17.70;;;;;;;2.66;100.00;99815.97;4808127;29;20086;-79
2021/12/30 03:38:34;;;;;;;36.83;13.88;;;;;;;2.85;100.00;99843.09;4808708;29;20027;-79
2021/12/30 03:41:00;;;;;;;41.10;16.05;;;;;;;2.91;100.00;99839.75;4793179;29;20034;-79
2021/12/30 03:43:27;;;;;;;33.42;14.05;;;;;;;2.92;100.00;99844.09;4793161;29;20034;-79
2021/12/30 03:45:53;;;;;;;39.03;14.70;;;;;;;2.91;100.00;99843.25;4808332;29;20031;-80
2021/12/30 03:48:18;;;;;;;34.78;14.57;;;;;;;2.81;100.00;99819.56;4793007;29;20039;-79
2021/12/30 03:50:45;;;;;;;41.22;15.30;;;;;;;2.91;100.00;99826.47;4816055;29;20053;-79
2021/12/30 03:53:12;;;;;;;30.17;14.15;;;;;;;2.62;100.00;99772.16;4811401;29;20049;-78
2021/12/30 03:55:38;;;;;;;36.17;14.05;;;;;;;2.98;100.00;99830.09;4809345;29;20049;-79
2021/12/30 03:58:04;;;;;;;34.13;13.18;;;;;;;2.93;100.00;99821.81;4822864;29;20034;-79
2021/12/30 04:00:31;;;;;;;31.15;13.23;;;;;;;2.97;100.00;99807.19;4811044;29;20119;-79
2021/12/30 04:02:57;;;;;;;30.42;13.02;;;;;;;3.00;100.00;99793.53;4780304;29;20045;-80
2021/12/30 04:05:24;;;;;;;26.73;12.35;;;;;;;2.68;100.00;99742.25;4808020;29;20039;-79
2021/12/30 04:07:49;;;;;;;26.52;11.88;;;;;;;3.02;100.00;99799.53;4794838;29;20038;-79
2021/12/30 04:10:17;;;;;;;32.35;12.75;;;;;;;3.09;100.00;99800.47;4809747;29;20026;-78
2021/12/30 04:12:45;;;;;;;30.98;12.55;;;;;;;3.12;100.00;99794.81;4827028;29;20109;-79
2021/12/30 04:15:10;;;;;;;32.00;13.52;;;;;;;3.13;100.00;99790.31;4796617;29;20043;-79
2021/12/30 04:17:36;;;;;;;28.92;12.20;;;;;;;2.75;100.00;99751.19;4793048;29;20037;-80
2021/12/30 04:20:04;;;;;;;28.98;11.35;;;;;;;3.20;100.00;99799.25;4796066;29;20453;-79
2021/12/30 04:22:30;;;;;;;34.28;12.75;;;;;;;3.22;100.00;99800.72;4806568;29;20044;-80
2021/12/30 04:24:58;;;;;;;34.08;12.82;;;;;;;3.10;100.00;99782.69;4825407;29;20034;-79
2021/12/30 04:27:23;;;;;;;32.05;12.20;;;;;;;3.02;100.00;99767.63;4789903;29;20035;-80
2021/12/30 04:29:49;;;;;;;25.75;11.57;;;;;;;3.28;100.00;99797.38;4795509;29;20044;-78
2021/12/30 04:32:14;;;;;;;32.53;11.60;;;;;;;3.34;100.00;99795.81;4824407;29;20483;-79
2021/12/30 04:34:40;;;;;;;25.23;11.43;;;;;;;3.39;100.00;99789.97;4826517;29;20035;-80
2021/12/30 04:37:05;;;;;;;25.40;11.05;;;;;;;3.47;100.00;99797.88;4803811;29;20050;-80
2021/12/30 04:39:31;;;;;;;27.65;11.65;;;;;;;3.48;100.00;99781.75;4822547;29;20073;-79
2021/12/30 04:42:01;;;;;;;29.45;11.70;;;;;;;3.54;100.00;99793.50;4808210;29;20030;-80
2021/12/30 04:44:28;;;;;;;31.23;12.50;;;;;;;3.57;100.00;99790.50;4791154;29;20030;-79
2021/12/30 04:46:53;;;;;;;31.20;13.07;;;;;;;3.45;100.00;99760.84;4792651;29;20066;-79
2021/12/30 04:49:19;;;;;;;29.15;12.77;;;;;;;3.65;100.00;99776.31;4791903;29;20053;-80
2021/12/30 04:51:44;;;;;;;30.45;13.27;;;;;;;3.68;100.00;99771.47;4822387;29;20022;-79
2021/12/30 04:54:10;;;;;;;33.38;14.07;;;;;;;3.71;100.00;99770.28;4779367;29;20042;-79
2021/12/30 04:56:35;;;;;;;36.03;14.45;;;;;;;3.72;100.00;99767.41;4771799;29;20033;-79
2021/12/30 04:59:00;;;;;;;37.80;16.38;;;;;;;3.77;100.00;99780.19;4807879;29;20168;-79
2021/12/30 05:01:26;;;;;;;45.90;17.33;;;;;;;3.79;100.00;99778.19;4776017;29;20038;-79
2021/12/30 05:03:51;;;;;;;45.55;17.60;;;;;;;3.01;100.00;99638.41;4790891;29;20477;-80
2021/12/30 05:06:17;;;;;;;50.22;19.08;;;;;;;3.72;100.00;99756.78;4793881;29;20180;-80
2021/12/30 05:08:42;;;;;;;51.58;20.60;;;;;;;3.90;100.00;99772.41;4794713;29;20121;-79
2021/12/30 05:11:08;;;;;;;48.97;18.67;;;;;;;3.89;100.00;99775.25;4806376;29;20030;-80
2021/12/30 05:13:33;;;;;;;59.47;20.27;;;;;;;3.74;100.00;99757.44;4822487;29;20040;-79
2021/12/30 05:15:59;;;;;;;60.28;22.20;;;;;;;3.87;100.00;99767.44;4824405;29;20138;-79
2021/12/30 05:18:30;;;;;;;53.42;20.38;;;;;;;3.68;100.00;99739.53;4808650;29;20044;-79
2021/12/30 05:21:01;;;;;;;59.63;20.65;;;;;;;3.91;100.00;99774.06;4823074;29;20042;-79
2021/12/30 05:23:28;;;;;;;64.72;21.65;;;;;;;3.92;100.00;99770.41;4792673;29;20462;-79
2021/12/30 05:25:53;;;;;;;47.95;17.20;;;;;;;3.58;100.00;99695.59;4812176;29;20129;-79
2021/12/30 05:28:18;;;;;;;55.67;21.17;;;;;;;3.93;100.00;99758.72;4805416;29;20039;-79
2021/12/30 05:30:44;;;;;;;62.15;20.05;;;;;;;3.58;100.00;99699.06;4793803;29;20031;-80
2021/12/30 05:33:09;;;;;;;74.88;23.08;;;;;;;4.00;100.00;99759.66;4787827;29;20096;-79
2021/12/30 05:35:35;;;;;;;75.22;23.17;;;;;;;4.07;100.00;99764.25;4787111;29;20043;-80
2021/12/30 05:38:02;;;;;;;77.75;23.63;;;;;;;3.92;100.00;99735.81;4788391;30;20070;-79
2021/12/30 05:40:27;;;;;;;69.95;23.73;;;;;;;4.05;100.00;99743.16;4799105;29;20127;-79
2021/12/30 05:42:53;;;;;;;82.93;24.77;;;;;;;4.12;100.00;99746.72;4788874;29;20039;-79
2021/12/30 05:45:19;;;;;;;86.45;25.58;;;;;;;4.13;100.00;99737.72;4800721;29;20373;-79
2021/12/30 05:47:47;;;;;;;70.05;23.52;;;;;;;3.87;100.00;99692.09;4804185;29;20137;-79
2021/12/30 05:50:17;;;;;;;88.20;25.58;;;;;;;4.20;100.00;99738.63;4787487;29;20888;-79
2021/12/30 05:52:43;;;;;;;84.70;25.08;;;;;;;4.22;100.00;99749.94;4788401;29;20027;-80
2021/12/30 05:55:09;;;;;;;78.97;24.63;;;;;;;3.82;100.00;99689.19;4788670;29;20191;-80
2021/12/30 05:57:35;;;;;;;87.70;25.65;;;;;;;4.09;100.00;99732.97;4787379;29;20045;-80
2021/12/30 06:00:00;;;;;;;84.50;25.02;;;;;;;4.00;100.00;99721.56;4788342;29;20053;-80
2021/12/30 06:02:26;;;;;;;87.38;24.05;;;;;;;4.34;100.00;99757.47;4789365;29;20041;-79
2021/12/30 06:04:51;;;;;;;78.38;23.33;;;;;;;4.20;100.00;99724.50;4788321;29;20038;-78
2021/12/30 06:07:17;;;;;;;87.85;23.88;;;;;;;4.40;100.00;99746.94;4782196;29;20043;-80
2021/12/30 06:09:42;;;;;;;85.63;22.67;;;;;;;4.36;100.00;99726.97;4779165;29;20098;-80
2021/12/30 06:12:08;;;;;;;94.80;22.65;;;;;;;4.30;100.00;99716.25;4775275;29;20053;-80
2021/12/30 06:14:34;;;;;;;95.03;23.35;;;;;;;4.48;100.00;99743.31;4788995;29;20027;-80
2021/12/30 06:16:59;;;;;;;96.43;22.80;;;;;;;4.52;100.00;99749.09;4789438;29;20050;-81
2021/12/30 06:19:25;;;;;;;104.05;22.02;;;;;;;4.51;100.00;99742.97;4793690;29;20053;-80
2021/12/30 06:21:50;;;;;;;93.65;21.42;;;;;;;4.38;100.00;99716.97;4790995;29;20043;-80
2021/12/30 06:24:16;;;;;;;98.45;20.35;;;;;;;4.54;100.00;99745.25;4789188;29;20038;-81
2021/12/30 06:26:41;;;;;;;93.68;20.33;;;;;;;4.08;100.00;99670.91;4804238;29;20027;-80
2021/12/30 06:29:07;;;;;;;97.55;19.73;;;;;;;4.46;100.00;99726.69;4793643;29;20038;-80
2021/12/30 06:31:32;;;;;;;88.47;18.98;;;;;;;4.63;100.00;99748.63;4794279;29;20019;-81
2021/12/30 06:33:58;;;;;;;93.22;19.33;;;;;;;4.56;100.00;99737.06;4816733;29;20026;-80
2021/12/30 06:36:26;;;;;;;103.57;21.17;;;;;;;4.60;100.00;99733.00;4797057;29;20089;-81
2021/12/30 06:38:51;;;;;;;90.50;20.10;;;;;;;4.73;100.00;99751.81;4782027;29;20031;-80
2021/12/30 06:41:18;;;;;;;111.82;20.27;;;;;;;4.75;100.00;99748.97;4796850;29;20518;-81
2021/12/30 06:43:43;;;;;;;98.20;20.15;;;;;;;4.76;100.00;99758.63;4799282;29;20118;-81
2021/12/30 06:46:10;;;;;;;108.22;20.55;;;;;;;4.77;100.00;99758.44;4794289;29;20081;-80
2021/12/30 06:48:37;;;;;;;93.75;19.95;;;;;;;4.81;100.00;99758.91;4808550;29;20541;-80
2021/12/30 06:51:04;;;;;;;126.68;21.73;;;;;;;4.87;100.00;99766.16;4796069;29;20034;-81
2021/12/30 06:53:30;;;;;;;114.43;20.30;;;;;;;4.90;100.00;99753.28;4789688;29;20038;-81
2021/12/30 06:55:59;;;;;;;114.15;20.15;;;;;;;4.89;100.00;99751.59;4806735;29;20069;-80
2021/12/30 06:58:25;;;;;;;113.88;19.98;;;;;;;4.97;100.00;99750.69;4803913;29;20038;-80
2021/12/30 07:00:50;;;;;;;127.25;20.73;;;;;;;5.10;100.00;99761.47;4782487;29;20489;-80
2021/12/30 07:03:16;;;;;;;107.95;19.23;;;;;;;5.08;100.00;99754.69;4794935;29;20132;-80
2021/12/30 07:05:41;;;;;;;123.43;20.23;;;;;;;5.13;100.00;99757.59;4808990;29;20038;-80
2021/12/30 07:08:07;;;;;;;111.28;20.17;;;;;;;5.27;100.00;99777.25;4793262;29;20062;-80
2021/12/30 07:10:32;;;;;;;119.78;19.83;;;;;;;5.10;100.00;99748.16;4809381;29;20031;-81
2021/12/30 07:12:58;;;;;;;131.55;20.48;;;;;;;4.77;100.00;99696.28;4806454;29;21424;-80
2021/12/30 07:15:23;;;;;;;132.00;19.92;;;;;;;5.24;100.00;99773.09;4808914;29;20531;-80
2021/12/30 07:17:49;;;;;;;110.00;20.05;;;;;;;4.93;100.00;99718.25;4815319;29;20035;-80
2021/12/30 07:20:15;;;;;;;108.45;18.80;;;;;;;5.26;100.00;99792.38;4807188;29;20042;-80
2021/12/30 07:22:41;;;;;;;113.43;19.00;;;;;;;4.56;100.00;99687.25;4807357;29;20031;-80
2021/12/30 07:25:08;;;;;;;105.40;18.75;;;;;;;5.29;100.00;99783.19;4813423;29;20462;-80
2021/12/30 07:27:33;;;;;;;108.30;17.15;;;;;;;5.36;100.00;99779.59;4793987;29;20461;-80
2021/12/30 07:29:59;;;;;;;118.30;17.98;;;;;;;5.42;100.00;99792.16;4793924;29;20027;-80
2021/12/30 07:32:25;;;;;;;124.55;17.70;;;;;;;5.48;100.00;99793.25;4792804;29;20458;-79
2021/12/30 07:34:51;;;;;;;125.55;17.42;;;;;;;5.27;100.00;99750.56;4792028;29;20041;-80
2021/12/30 07:37:19;;;;;;;115.20;17.30;;;;;;;5.49;100.00;99786.06;4803751;29;20122;-81
2021/12/30 07:39:47;;;;;;;130.45;17.67;;;;;;;5.45;100.00;99782.13;4796068;29;20026;-81
2021/12/30 07:42:13;;;;;;;117.40;16.20;;;;;;;5.28;100.00;99741.53;4793646;29;20062;-80
2021/12/30 07:44:40;;;;;;;116.80;15.75;;;;;;;5.68;100.00;99798.75;4801022;29;20046;-80
2021/12/30 07:47:09;;;;;;;109.28;15.07;;;;;;;5.41;100.00;99739.00;4788239;29;20026;-80
2021/12/30 07:49:36;;;;;;;126.38;15.07;;;;;;;5.85;100.00;99799.31;4803359;29;20084;-81
2021/12/30 07:52:03;;;;;;;143.20;16.45;;;;;;;5.87;100.00;99815.97;4790644;29;20034;-81
2021/12/30 07:54:28;;;;;;;130.50;17.05;;;;;;;5.88;100.00;99814.94;4792659;29;20041;-80
2021/12/30 07:56:54;;;;;;;126.55;14.85;;;;;;;5.89;100.00;99803.22;4789174;29;20038;-80
2021/12/30 07:59:19;;;;;;;155.55;16.35;;;;;;;5.69;100.00;99784.38;4794252;29;20035;-80
2021/12/30 08:01:44;;;;;;;125.35;17.42;;;;;;;5.35;100.00;99745.91;4779369;29;20111;-80
2021/12/30 08:04:10;;;;;;;126.60;17.58;;;;;;;5.73;100.00;99806.19;4780355;29;20054;-81
2021/12/30 08:06:35;;;;;;;129.63;17.95;;;;;;;5.51;100.00;99792.84;4818737;29;20422;-81
2021/12/30 08:09:01;;;;;;;115.38;17.85;;;;;;;5.59;100.00;99813.25;4799916;29;20058;-80
2021/12/30 08:11:27;;;;;;;132.85;17.45;;;;;;;5.55;100.00;99820.81;4801156;29;20034;-82
2021/12/30 08:13:52;;;;;;;132.07;17.83;;;;;;;5.24;100.00;99781.09;4833446;29;20035;-81
2021/12/30 08:16:18;;;;;;;106.00;17.05;;;;;;;5.51;100.00;99826.72;4796318;29;20047;-80
2021/12/30 08:18:43;;;;;;;117.22;18.75;;;;;;;5.39;100.00;99805.03;4813221;29;20122;-81
2021/12/30 08:21:09;;;;;;;117.05;18.70;;;;;;;5.42;100.00;99808.16;4769506;29;20050;-80
2021/12/30 08:23:35;;;;;;;127.13;19.25;;;;;;;5.49;100.00;99818.88;4821623;29;20050;-81
2021/12/30 08:26:05;;;;;;;129.20;19.02;;;;;;;5.53;100.00;99824.66;4818272;29;20095;-81
2021/12/30 08:28:30;;;;;;;116.18;18.02;;;;;;;5.55;100.00;99820.81;4793574;29;20035;-79
2021/12/30 08:30:57;;;;;;;131.27;20.05;;;;;;;5.61;100.00;99808.56;4818902;29;20095;-81
2021/12/30 08:33:22;;;;;;;140.30;18.67;;;;;;;5.63;100.00;99811.88;4803320;29;20026;-82
2021/12/30 08:35:48;;;;;;;135.05;19.08;;;;;;;5.47;100.00;99782.78;4822462;29;20045;-81
2021/12/30 08:38:14;;;;;;;128.50;17.27;;;;;;;5.40;100.00;99774.69;4795979;29;20487;-83
2021/12/30 08:40:39;;;;;;;132.65;17.23;;;;;;;5.40;100.00;99753.34;4779188;29;20039;-81
2021/12/30 08:43:06;;;;;;;150.07;16.63;;;;;;;5.77;100.00;99826.16;4802438;29;20015;-82
2021/12/30 08:45:33;;;;;;;139.73;16.10;;;;;;;5.80;100.00;99831.09;4790315;30;20092;-80
2021/12/30 08:48:00;;;;;;;136.15;15.50;;;;;;;5.84;100.00;99827.03;4782633;29;20022;-80
2021/12/30 08:50:25;;;;;;;151.02;14.27;;;;;;;5.91;100.00;99819.91;4807155;29;20108;-79
2021/12/30 08:52:51;;;;;;;140.13;15.38;;;;;;;5.41;100.00;99734.47;4792175;29;20030;-80
2021/12/30 08:55:17;;;;;;;127.88;13.38;;;;;;;6.09;100.00;99839.00;4807533;29;20054;-79
2021/12/30 08:57:45;;;;;;;139.75;14.73;;;;;;;5.95;100.00;99799.81;4806850;29;20042;-80
2021/12/30 09:00:16;;;;;;;158.88;13.95;;;;;;;6.17;100.00;99827.31;4791928;29;20049;-81
2021/12/30 09:02:42;;;;;;;142.75;13.57;;;;;;;6.11;100.00;99815.56;4801799;29;20103;-81
2021/12/30 09:05:09;;;;;;;157.13;16.35;;;;;;;6.16;100.00;99814.16;4797871;29;20034;-81
2021/12/30 09:07:34;;;;;;;134.90;13.48;;;;;;;6.09;100.00;99801.59;4810659;29;20095;-80
2021/12/30 09:09:59;;;;;;;146.95;15.45;;;;;;;6.41;100.00;99857.28;4776785;29;20042;-81
2021/12/30 09:12:25;;;;;;;158.02;15.57;;;;;;;6.32;100.00;99843.25;4788384;29;20435;-82
2021/12/30 09:14:51;;;;;;;121.38;14.45;;;;;;;6.43;100.00;99869.44;4792692;29;20121;-80
2021/12/30 09:17:17;;;;;;;123.63;13.40;;;;;;;6.28;100.00;99840.13;4786306;29;20038;-81
2021/12/30 09:19:42;;;;;;;137.82;14.82;;;;;;;6.40;100.00;99853.78;4793904;29;20497;-82
2021/12/30 09:22:07;;;;;;;139.13;14.82;;;;;;;6.51;100.00;99869.28;4777233;30;20106;-81
2021/12/30 09:24:33;;;;;;;159.30;16.80;;;;;;;6.46;100.00;99858.38;4781893;29;20377;-80
2021/12/30 09:27:01;;;;;;;157.88;16.35;;;;;;;6.55;100.00;99865.19;4809573;29;20118;-79
2021/12/30 09:29:26;;;;;;;158.18;15.70;;;;;;;6.40;100.00;99829.75;4786933;29;20140;-80
2021/12/30 09:31:52;;;;;;;153.68;16.40;;;;;;;6.61;100.00;99860.09;4783401;29;20066;-80
2021/12/30 09:34:19;;;;;;;188.85;16.70;;;;;;;6.54;100.00;99858.19;4800151;29;20037;-79
2021/12/30 09:36:44;;;;;;;157.90;16.48;;;;;;;6.53;100.00;99864.56;4781761;29;20183;-80
2021/12/30 09:39:12;;;;;;;156.57;15.60;;;;;;;6.40;100.00;99855.66;4775056;30;20103;-80
2021/12/30 09:41:39;;;;;;;147.02;16.42;;;;;;;6.61;100.00;99882.28;4785290;29;20480;-80
2021/12/30 09:44:07;;;;;;;146.75;16.10;;;;;;;6.42;100.00;99859.75;4769837;30;20100;-80
2021/12/30 09:46:34;;;;;;;148.85;15.77;;;;;;;6.59;100.00;99879.00;4779180;29;20035;-80
2021/12/30 09:49:00;;;;;;;136.73;15.15;;;;;;;6.59;100.00;99874.47;4772143;30;20520;-80
2021/12/30 09:51:26;;;;;;;167.68;16.85;;;;;;;6.36;100.00;99844.53;4787719;29;20031;-81
2021/12/30 09:53:51;;;;;;;155.50;16.45;;;;;;;6.53;100.00;99867.25;4788013;29;20024;-80
2021/12/30 09:56:19;;;;;;;155.13;16.23;;;;;;;6.57;100.00;99857.81;4742641;30;20096;-80
2021/12/30 09:58:44;;;;;;;194.73;18.10;;;;;;;6.38;100.00;99833.63;4787684;29;21548;-79
2021/12/30 10:01:10;;;;;;;168.13;16.58;;;;;;;6.52;100.00;99854.91;4758815;30;20477;-80
2021/12/30 10:03:35;;;;;;;172.77;17.05;;;;;;;6.42;100.00;99840.22;4770171;29;20027;-81
2021/12/30 10:06:07;;;;;;;177.40;18.02;;;;;;;6.63;100.00;99882.13;4773714;29;20039;-80
2021/12/30 10:08:36;;;;;;;192.10;18.20;;;;;;;6.60;100.00;99883.31;4788719;29;20035;-80
2021/12/30 10:11:05;;;;;;;183.45;19.13;;;;;;;6.65;100.00;99888.88;4760557;30;20031;-80
2021/12/30 10:14:06;;;;;;;205.98;19.00;;;;;;;6.66;100.00;99879.03;4775084;29;20045;-81
2021/12/30 10:16:31;;;;;;;208.73;19.27;;;;;;;6.63;100.00;99888.28;4735461;29;20044;-81
2021/12/30 10:19:05;;;;;;;198.30;18.08;;;;;;;6.64;100.00;99884.56;4789830;29;20027;-81
2021/12/30 10:21:30;;;;;;;204.30;19.55;;;;;;;6.59;100.00;99881.69;4774623;30;20031;-80
2021/12/30 10:24:01;;;;;;;195.25;21.05;;;;;;;6.56;100.00;99880.22;4789924;30;20035;-81
2021/12/30 10:26:27;;;;;;;176.00;18.63;;;;;;;6.57;100.00;99886.38;4775980;29;20370;-81
2021/12/30 10:29:10;;;;;;;208.70;19.70;;;;;;;6.51;100.00;99887.16;4778980;29;20039;-82
2021/12/30 10:31:38;;;;;;;202.73;18.00;;;;;;;6.14;100.00;99816.19;4786065;30;20057;-81
2021/12/30 10:34:06;;;;;;;181.25;17.80;;;;;;;6.51;100.00;99881.81;4778815;29;20038;-83
2021/12/30 10:36:47;;;;;;;183.90;18.55;;;;;;;6.49;100.00;99875.81;4810472;29;20035;-83
2021/12/30 10:39:17;;;;;;;202.55;19.77;;;;;;;6.50;100.00;99878.31;4808989;29;20023;-82
2021/12/30 10:41:43;;;;;;;159.05;17.52;;;;;;;6.48;100.00;99877.69;4789858;29;20031;-81
2021/12/30 10:44:09;;;;;;;164.55;19.02;;;;;;;6.54;100.00;99884.91;4810303;29;20465;-81
2021/12/30 10:46:36;;;;;;;189.30;19.55;;;;;;;6.54;100.00;99873.41;4789481;29;20039;-81
2021/12/30 10:49:31;;;;;;;183.23;19.42;;;;;;;6.56;100.00;99869.53;4780974;30;20378;-80
2021/12/30 10:51:58;;;;;;;166.20;18.73;;;;;;;6.42;100.00;99840.22;4762708;30;20067;-81
2021/12/30 10:54:34;;;;;;;162.77;16.20;;;;;;;6.64;100.00;99859.69;4771067;30;20753;-81
2021/12/30 10:57:01;;;;;;;188.20;17.25;;;;;;;6.67;100.00;99857.44;4792065;30;20096;-80
2021/12/30 10:59:29;;;;;;;159.52;17.40;;;;;;;6.68;100.00;99858.28;4802142;29;20035;-82
2021/12/30 11:02:17;;;;;;;147.63;15.35;;;;;;;6.64;100.00;99857.84;4769627;30;20105;-81
2021/12/30 11:04:56;;;;;;;169.40;16.85;;;;;;;6.53;100.00;99835.16;4806961;29;20098;-82
2021/12/30 11:07:42;;;;;;;182.02;19.95;;;;;;;6.59;100.00;99857.63;4784746;29;20083;-82
2021/12/30 11:10:09;;;;;;;163.32;18.33;;;;;;;6.59;100.00;99850.44;4795743;29;20007;-82
2021/12/30 11:12:38;;;;;;;175.27;19.23;;;;;;;6.56;100.00;99850.81;4810343;29;20071;-83